createdAt,value
2019-02-04T00:01:32.493Z,34.33
2019-02-04T00:06:34.142Z,30.60
2019-02-04T00:11:35.522Z,27.07
2019-02-04T00:16:40.746Z,28.60
2019-02-04T00:21:40.030Z,26.73
2019-02-04T00:26:51.322Z,34.83
2019-02-04T00:31:44.422Z,27.60
2019-02-04T00:36:45.748Z,30.60
2019-02-04T00:41:47.018Z,27.83
2019-02-04T00:46:52.124Z,25.40
2019-02-04T00:51:51.804Z,25.70
2019-02-04T00:56:53.079Z,25.27
2019-02-04T01:01:54.368Z,25.77
2019-02-04T01:06:56.021Z,34.40
2019-02-04T01:11:57.702Z,30.13
2019-02-04T01:17:03.498Z,24.63
2019-02-04T01:22:02.443Z,29.25
2019-02-04T01:27:03.742Z,22.30
2019-02-04T01:32:05.392Z,25.83
2019-02-04T01:37:06.689Z,22.53
2019-02-04T01:42:07.970Z,23.70
2019-02-04T01:47:14.737Z,21.63
2019-02-04T01:52:13.207Z,24.30
2019-02-04T01:57:14.478Z,20.23
2019-02-04T02:02:15.767Z,21.63
2019-02-04T02:07:17.053Z,19.53
2019-02-04T02:12:19.127Z,19.27
2019-02-04T02:17:26.608Z,16.57
2019-02-04T02:22:23.817Z,14.83
2019-02-04T02:27:25.194Z,18.40
2019-02-04T02:32:26.794Z,16.30
2019-02-04T02:37:28.474Z,16.02
2019-02-04T02:42:29.777Z,13.37
2019-02-04T02:47:38.422Z,13.33
2019-02-04T02:52:34.425Z,12.77
2019-02-04T02:57:35.702Z,13.40
2019-02-04T03:02:36.991Z,12.53
2019-02-04T03:07:38.278Z,14.33
2019-02-04T03:12:39.588Z,14.73
2019-02-04T03:17:51.569Z,12.93
2019-02-04T03:22:44.776Z,10.67
2019-02-04T03:27:46.059Z,11.13
2019-02-04T03:32:47.800Z,14.30
2019-02-04T03:37:52.103Z,11.67
2019-02-04T03:42:52.203Z,9.73
2019-02-04T03:48:04.559Z,9.90
2019-02-04T03:52:56.582Z,11.63
2019-02-04T03:57:58.293Z,11.78
2019-02-04T04:02:59.582Z,10.63
2019-02-04T04:08:01.176Z,10.07
2019-02-04T04:13:02.813Z,9.97
2019-02-04T04:18:15.157Z,11.17
2019-02-04T04:23:07.623Z,9.97
2019-02-04T04:28:08.915Z,10.20
2019-02-04T04:33:10.519Z,10.20
2019-02-04T04:38:11.831Z,9.77
2019-02-04T04:43:13.118Z,10.10
2019-02-04T04:48:14.406Z,10.77
2019-02-04T04:53:15.701Z,10.73
2019-02-04T04:58:17.698Z,10.30
2019-02-04T05:03:19.346Z,10.77
2019-02-04T05:08:20.635Z,8.93
2019-02-04T05:13:22.034Z,9.03
2019-02-04T05:18:23.388Z,11.20
2019-02-04T05:23:24.686Z,10.80
2019-02-04T05:28:25.986Z,10.67
2019-02-04T05:33:27.612Z,10.23
2019-02-04T05:38:29.233Z,12.53
2019-02-04T05:43:30.515Z,9.57
2019-02-04T05:48:31.809Z,11.97
2019-02-04T05:53:33.086Z,13.03
2019-02-04T05:58:34.382Z,12.50
2019-02-04T06:03:36.039Z,11.83
2019-02-04T06:08:37.694Z,10.40
2019-02-04T06:13:39.249Z,10.57
2019-02-04T06:18:40.558Z,15.77
2019-02-04T06:23:41.850Z,13.30
2019-02-04T06:28:43.126Z,11.17
2019-02-04T06:33:44.777Z,11.33
2019-02-04T06:38:46.071Z,10.27
2019-02-04T06:43:47.780Z,15.60
2019-02-04T06:48:49.085Z,13.53
2019-02-04T06:53:50.776Z,17.13
2019-02-04T06:58:52.062Z,16.70
2019-02-04T07:03:53.375Z,16.07
2019-02-04T07:08:54.730Z,20.47
2019-02-04T07:13:55.978Z,12.37
2019-02-04T07:18:57.267Z,15.20
2019-02-04T07:23:58.750Z,14.47
2019-02-04T07:29:00.051Z,13.63
2019-02-04T07:34:01.338Z,17.10
2019-02-04T07:39:05.464Z,15.00
2019-02-04T07:44:06.754Z,19.20
2019-02-04T07:49:08.041Z,24.53
2019-02-04T07:54:09.341Z,31.63
2019-02-04T07:59:12.342Z,23.20
2019-02-04T08:04:13.735Z,13.47
2019-02-04T08:09:15.172Z,10.23
2019-02-04T08:14:16.564Z,10.37
2019-02-04T08:19:18.330Z,10.30
2019-02-04T08:24:19.606Z,11.30
2019-02-04T08:29:21.687Z,11.23
2019-02-04T08:34:23.011Z,10.27
2019-02-04T08:39:24.410Z,10.03
2019-02-04T08:44:25.701Z,10.07
2019-02-04T08:49:26.986Z,25.83
2019-02-04T08:54:28.277Z,13.10
2019-02-04T08:59:29.571Z,9.73
2019-02-04T09:04:30.855Z,9.37
2019-02-04T09:09:32.142Z,12.50
2019-02-04T09:14:33.840Z,14.37
2019-02-04T09:19:35.238Z,12.67
2019-02-04T09:24:36.726Z,11.53
2019-02-04T09:29:38.017Z,11.47
2019-02-04T09:34:39.306Z,14.70
2019-02-04T09:39:40.898Z,11.73
2019-02-04T09:44:42.175Z,11.57
2019-02-04T09:49:43.478Z,8.73
2019-02-04T09:54:45.108Z,10.13
2019-02-04T09:59:46.862Z,9.47
2019-02-04T10:04:48.506Z,10.27
2019-02-04T10:09:49.794Z,9.93
2019-02-04T10:14:51.442Z,9.63
2019-02-04T10:19:53.152Z,12.00
2019-02-04T10:24:54.647Z,10.07
2019-02-04T10:29:57.706Z,10.88
2019-02-04T10:34:59.122Z,10.33
2019-02-04T10:40:00.387Z,11.00
2019-02-04T10:45:02.110Z,11.60
2019-02-04T10:50:10.204Z,9.33
2019-02-04T10:55:11.514Z,9.80
2019-02-04T11:00:21.660Z,8.83
2019-02-04T11:05:44.687Z,9.90
2019-02-04T11:10:46.043Z,9.27
2019-02-04T11:15:47.475Z,9.47
2019-02-04T11:20:57.853Z,8.80
2019-02-04T11:25:52.406Z,10.70
2019-02-04T11:30:56.159Z,8.80
2019-02-04T11:35:57.461Z,8.93
2019-02-04T11:40:58.753Z,9.30
2019-02-04T11:46:00.404Z,8.83
2019-02-04T11:51:09.160Z,8.80
2019-02-04T11:56:04.825Z,9.63
2019-02-04T12:01:06.279Z,11.33
2019-02-04T12:06:07.570Z,9.57
2019-02-04T12:11:09.468Z,10.97
2019-02-04T12:16:11.182Z,10.97
2019-02-04T12:21:21.072Z,12.20
2019-02-04T12:26:15.563Z,10.83
2019-02-04T12:31:16.857Z,10.43
2019-02-04T12:36:18.151Z,9.57
2019-02-04T12:41:19.437Z,11.50
2019-02-04T12:46:20.727Z,10.50
2019-02-04T12:51:32.963Z,10.10
2019-02-04T12:56:25.466Z,11.10
2019-02-04T13:01:27.156Z,9.83
2019-02-04T13:06:28.546Z,11.30
2019-02-04T13:11:29.975Z,10.70
2019-02-04T13:16:31.369Z,11.73
2019-02-04T13:21:32.660Z,11.20
2019-02-04T13:26:33.957Z,11.13
2019-02-04T13:31:39.013Z,10.40
2019-02-04T13:37:00.162Z,10.10
2019-02-04T13:42:01.823Z,11.63
2019-02-04T13:47:05.693Z,10.63
2019-02-04T13:52:06.537Z,13.67
2019-02-04T13:57:07.828Z,10.60
2019-02-04T14:02:09.527Z,10.40
2019-02-04T14:07:10.919Z,12.10
2019-02-04T14:12:12.266Z,10.87
2019-02-04T14:17:13.560Z,12.47
2019-02-04T14:22:14.849Z,10.40
2019-02-04T14:27:16.145Z,10.10
2019-02-04T14:32:17.452Z,10.97
2019-02-04T14:37:18.735Z,12.20
2019-02-04T14:42:20.028Z,11.50
2019-02-04T14:47:25.469Z,12.17
2019-02-04T14:52:33.710Z,12.00
2019-02-04T14:57:53.959Z,15.30
2019-02-04T15:03:19.580Z,15.63
2019-02-04T15:08:33.502Z,13.50
2019-02-04T15:13:54.223Z,14.13
2019-02-04T15:19:05.061Z,14.40
2019-02-04T15:24:12.902Z,22.40
2019-02-04T15:29:18.401Z,25.77
2019-02-04T15:34:41.763Z,31.73
2019-02-04T15:39:59.731Z,32.07
2019-02-04T15:45:07.708Z,35.40
2019-02-04T15:50:21.978Z,24.83
2019-02-04T15:55:23.242Z,28.35
2019-02-04T16:00:24.644Z,20.03
2019-02-04T16:05:25.930Z,37.00
2019-02-04T16:10:27.224Z,33.60
2019-02-04T16:15:28.858Z,30.77
2019-02-04T16:20:30.545Z,32.53
2019-02-04T16:25:31.935Z,40.27
2019-02-04T16:30:33.234Z,38.00
2019-02-04T16:35:34.520Z,40.30
2019-02-04T16:40:35.803Z,37.87
2019-02-04T16:45:37.185Z,38.70
2019-02-04T16:50:38.845Z,27.40
2019-02-04T16:55:40.545Z,29.50
2019-02-04T17:00:42.263Z,41.67
2019-02-04T17:05:43.539Z,199.97
2019-02-04T17:10:44.927Z,63.17
2019-02-04T17:15:46.708Z,35.83
2019-02-04T17:20:47.993Z,35.20
2019-02-04T17:25:49.286Z,54.55
2019-02-04T17:30:50.570Z,36.27
2019-02-04T17:35:51.863Z,32.97
2019-02-04T17:40:53.747Z,28.57
2019-02-04T17:45:55.358Z,49.30
2019-02-04T17:50:56.645Z,38.17
2019-02-04T17:55:57.971Z,34.10
2019-02-04T18:00:59.820Z,36.47
2019-02-04T18:06:01.196Z,40.97
2019-02-04T18:11:02.506Z,68.83
2019-02-04T18:16:04.034Z,58.90
2019-02-04T18:21:05.822Z,33.47
2019-02-04T18:26:07.477Z,28.10
2019-02-04T18:31:09.410Z,35.57
2019-02-04T18:36:11.038Z,34.33
2019-02-04T18:41:12.721Z,33.47
2019-02-04T18:46:13.995Z,29.77
2019-02-04T18:51:16.490Z,24.93
2019-02-04T18:56:17.783Z,24.13
2019-02-04T19:01:19.063Z,22.73
2019-02-04T19:06:20.341Z,26.20
2019-02-04T19:11:21.922Z,22.50
2019-02-04T19:16:23.234Z,22.83
2019-02-04T19:21:24.524Z,22.87
2019-02-04T19:26:25.810Z,22.83
2019-02-04T19:31:27.078Z,24.45
2019-02-04T19:36:28.361Z,26.17
2019-02-04T19:41:29.762Z,25.13
2019-02-04T19:46:31.094Z,20.67
2019-02-04T19:51:32.683Z,22.30
2019-02-04T19:56:34.328Z,38.43
2019-02-04T20:01:35.727Z,69.47
2019-02-04T20:06:36.988Z,26.40
2019-02-04T20:11:38.603Z,33.37
2019-02-04T20:16:39.907Z,25.67
2019-02-04T20:21:41.301Z,24.27
2019-02-04T20:26:42.599Z,31.53
2019-02-04T20:31:44.200Z,27.43
2019-02-04T20:36:45.882Z,27.97
2019-02-04T20:41:47.532Z,31.07
2019-02-04T20:46:49.254Z,23.57
2019-02-04T20:51:50.553Z,23.77
2019-02-04T20:56:52.078Z,25.07
2019-02-04T21:01:54.326Z,34.03
2019-02-04T21:06:56.439Z,34.20
2019-02-04T21:11:57.965Z,36.13
2019-02-04T21:16:59.259Z,38.92
2019-02-04T21:22:00.556Z,34.53
2019-02-04T21:27:01.830Z,33.10
2019-02-04T21:32:03.524Z,34.50
2019-02-04T21:37:05.005Z,31.27
2019-02-04T21:42:06.291Z,30.43
2019-02-04T21:47:07.570Z,31.63
2019-02-04T21:52:08.854Z,27.23
2019-02-04T21:57:10.149Z,29.73
2019-02-04T22:02:11.862Z,33.13
2019-02-04T22:07:13.142Z,35.13
2019-02-04T22:12:14.585Z,33.87
2019-02-04T22:17:15.862Z,31.93
2019-02-04T22:22:17.541Z,31.30
2019-02-04T22:27:18.859Z,40.03
2019-02-04T22:32:20.109Z,36.63
2019-02-04T22:37:21.832Z,33.20
2019-02-04T22:42:23.370Z,32.20
2019-02-04T22:47:25.197Z,33.97
2019-02-04T22:52:26.534Z,26.50
2019-02-04T22:57:27.806Z,37.30
2019-02-04T23:02:29.428Z,31.30
2019-02-04T23:07:30.822Z,30.57
2019-02-04T23:12:32.126Z,29.27
2019-02-04T23:17:33.405Z,26.70
2019-02-04T23:22:34.698Z,24.87
2019-02-04T23:27:36.293Z,32.80
2019-02-04T23:32:37.573Z,34.67
2019-02-04T23:37:38.858Z,33.60
2019-02-04T23:42:40.141Z,30.10
2019-02-04T23:47:41.425Z,29.43
2019-02-04T23:52:42.803Z,26.20
2019-02-04T23:57:44.094Z,31.33
